sensor_id;sensor_type;location;lat;lon;timestamp;P1;durP1;ratioP1;P2;durP2;ratioP2
209;SDS011;90;48.810;9.120;2022-08-25T00:01:46;5.50;;;5.20;;
209;SDS011;90;48.810;9.120;2022-08-25T00:04:17;5.30;;;5.00;;
209;SDS011;90;48.810;9.120;2022-08-25T00:06:45;5.73;;;5.43;;
209;SDS011;90;48.810;9.120;2022-08-25T00:09:15;5.37;;;5.07;;
209;SDS011;90;48.810;9.120;2022-08-25T00:11:44;5.13;;;4.80;;
209;SDS011;90;48.810;9.120;2022-08-25T00:14:14;6.53;;;5.10;;
209;SDS011;90;48.810;9.120;2022-08-25T00:16:42;5.20;;;4.90;;
209;SDS011;90;48.810;9.120;2022-08-25T00:19:15;5.30;;;5.03;;
209;SDS011;90;48.810;9.120;2022-08-25T00:21:46;5.53;;;5.23;;
209;SDS011;90;48.810;9.120;2022-08-25T00:24:14;5.73;;;4.97;;
209;SDS011;90;48.810;9.120;2022-08-25T00:26:44;5.40;;;5.10;;
209;SDS011;90;48.810;9.120;2022-08-25T00:29:12;5.63;;;5.33;;
209;SDS011;90;48.810;9.120;2022-08-25T00:31:40;5.10;;;4.80;;
209;SDS011;90;48.810;9.120;2022-08-25T00:34:09;5.20;;;4.90;;
209;SDS011;90;48.810;9.120;2022-08-25T00:36:40;5.40;;;5.10;;
209;SDS011;90;48.810;9.120;2022-08-25T00:39:07;6.57;;;5.53;;
209;SDS011;90;48.810;9.120;2022-08-25T00:41:36;7.17;;;4.47;;
209;SDS011;90;48.810;9.120;2022-08-25T00:44:05;7.30;;;4.87;;
209;SDS011;90;48.810;9.120;2022-08-25T00:46:35;7.90;;;5.10;;
209;SDS011;90;48.810;9.120;2022-08-25T00:49:05;5.00;;;4.70;;
209;SDS011;90;48.810;9.120;2022-08-25T00:51:36;5.97;;;4.90;;
209;SDS011;90;48.810;9.120;2022-08-25T00:54:09;5.17;;;4.73;;
209;SDS011;90;48.810;9.120;2022-08-25T00:56:39;5.60;;;5.30;;
209;SDS011;90;48.810;9.120;2022-08-25T00:59:08;5.40;;;5.10;;
209;SDS011;90;48.810;9.120;2022-08-25T01:01:36;6.00;;;4.97;;
209;SDS011;90;48.810;9.120;2022-08-25T01:04:05;6.33;;;5.27;;
209;SDS011;90;48.810;9.120;2022-08-25T01:06:33;5.10;;;4.80;;
209;SDS011;90;48.810;9.120;2022-08-25T01:09:03;7.30;;;5.03;;
209;SDS011;90;48.810;9.120;2022-08-25T01:11:33;5.47;;;5.17;;
209;SDS011;90;48.810;9.120;2022-08-25T01:14:01;5.30;;;5.00;;
209;SDS011;90;48.810;9.120;2022-08-25T01:16:31;7.40;;;5.47;;
209;SDS011;90;48.810;9.120;2022-08-25T01:18:59;6.57;;;5.40;;
209;SDS011;90;48.810;9.120;2022-08-25T01:21:28;5.07;;;4.77;;
209;SDS011;90;48.810;9.120;2022-08-25T01:23:57;5.30;;;5.00;;
209;SDS011;90;48.810;9.120;2022-08-25T01:26:27;5.10;;;4.80;;
209;SDS011;90;48.810;9.120;2022-08-25T01:28:57;5.10;;;4.80;;
209;SDS011;90;48.810;9.120;2022-08-25T01:31:43;5.60;;;5.30;;
209;SDS011;90;48.810;9.120;2022-08-25T01:34:11;6.37;;;4.73;;
209;SDS011;90;48.810;9.120;2022-08-25T01:36:41;5.10;;;4.80;;
209;SDS011;90;48.810;9.120;2022-08-25T01:39:09;5.53;;;5.23;;
209;SDS011;90;48.810;9.120;2022-08-25T01:41:40;5.57;;;5.27;;
209;SDS011;90;48.810;9.120;2022-08-25T01:44:15;6.20;;;5.10;;
209;SDS011;90;48.810;9.120;2022-08-25T01:46:43;5.80;;;5.50;;
209;SDS011;90;48.810;9.120;2022-08-25T01:49:10;5.67;;;5.30;;
209;SDS011;90;48.810;9.120;2022-08-25T01:51:38;5.40;;;5.10;;
209;SDS011;90;48.810;9.120;2022-08-25T01:54:12;10.37;;;5.23;;
209;SDS011;90;48.810;9.120;2022-08-25T01:56:39;7.30;;;5.10;;
209;SDS011;90;48.810;9.120;2022-08-25T01:59:06;6.50;;;5.30;;
209;SDS011;90;48.810;9.120;2022-08-25T02:01:33;5.20;;;4.90;;
209;SDS011;90;48.810;9.120;2022-08-25T02:04:00;5.37;;;5.07;;
209;SDS011;90;48.810;9.120;2022-08-25T02:06:28;5.70;;;5.30;;
209;SDS011;90;48.810;9.120;2022-08-25T02:08:59;5.63;;;5.20;;
209;SDS011;90;48.810;9.120;2022-08-25T02:11:28;7.70;;;4.93;;
209;SDS011;90;48.810;9.120;2022-08-25T02:13:56;5.33;;;5.03;;
209;SDS011;90;48.810;9.120;2022-08-25T02:16:25;5.77;;;5.50;;
209;SDS011;90;48.810;9.120;2022-08-25T02:18:56;5.60;;;5.30;;
209;SDS011;90;48.810;9.120;2022-08-25T02:21:24;5.57;;;5.30;;
209;SDS011;90;48.810;9.120;2022-08-25T02:23:52;6.00;;;5.50;;
209;SDS011;90;48.810;9.120;2022-08-25T02:26:21;5.30;;;5.10;;
209;SDS011;90;48.810;9.120;2022-08-25T02:28:48;7.63;;;5.50;;
209;SDS011;90;48.810;9.120;2022-08-25T02:31:17;8.20;;;5.55;;
209;SDS011;90;48.810;9.120;2022-08-25T02:33:46;6.00;;;5.70;;
209;SDS011;90;48.810;9.120;2022-08-25T02:36:13;6.50;;;5.70;;
209;SDS011;90;48.810;9.120;2022-08-25T02:38:40;5.90;;;5.63;;
209;SDS011;90;48.810;9.120;2022-08-25T02:41:08;8.77;;;5.57;;
209;SDS011;90;48.810;9.120;2022-08-25T02:43:39;6.63;;;5.93;;
209;SDS011;90;48.810;9.120;2022-08-25T02:46:07;5.37;;;5.07;;
209;SDS011;90;48.810;9.120;2022-08-25T02:48:35;6.37;;;5.83;;
209;SDS011;90;48.810;9.120;2022-08-25T02:51:03;8.53;;;5.43;;
209;SDS011;90;48.810;9.120;2022-08-25T02:53:31;7.73;;;6.40;;
209;SDS011;90;48.810;9.120;2022-08-25T02:55:59;6.90;;;5.40;;
209;SDS011;90;48.810;9.120;2022-08-25T02:58:26;5.97;;;5.43;;
209;SDS011;90;48.810;9.120;2022-08-25T03:00:55;7.27;;;5.97;;
209;SDS011;90;48.810;9.120;2022-08-25T03:03:22;7.60;;;5.80;;
209;SDS011;90;48.810;9.120;2022-08-25T03:05:49;6.40;;;5.60;;
209;SDS011;90;48.810;9.120;2022-08-25T03:08:16;6.93;;;5.90;;
209;SDS011;90;48.810;9.120;2022-08-25T03:10:43;6.00;;;5.70;;
209;SDS011;90;48.810;9.120;2022-08-25T03:13:10;5.97;;;5.50;;
209;SDS011;90;48.810;9.120;2022-08-25T03:15:38;6.73;;;6.37;;
209;SDS011;90;48.810;9.120;2022-08-25T03:18:08;7.87;;;6.60;;
209;SDS011;90;48.810;9.120;2022-08-25T03:20:37;7.83;;;6.60;;
209;SDS011;90;48.810;9.120;2022-08-25T03:23:04;6.77;;;6.07;;
209;SDS011;90;48.810;9.120;2022-08-25T03:25:32;5.63;;;5.40;;
209;SDS011;90;48.810;9.120;2022-08-25T03:28:17;6.53;;;5.50;;
209;SDS011;90;48.810;9.120;2022-08-25T03:30:44;8.75;;;6.43;;
209;SDS011;90;48.810;9.120;2022-08-25T03:33:13;5.80;;;5.50;;
209;SDS011;90;48.810;9.120;2022-08-25T03:35:40;5.93;;;5.60;;
209;SDS011;90;48.810;9.120;2022-08-25T03:38:07;8.30;;;6.60;;
209;SDS011;90;48.810;9.120;2022-08-25T03:40:35;6.40;;;6.00;;
209;SDS011;90;48.810;9.120;2022-08-25T03:43:04;7.70;;;6.37;;
209;SDS011;90;48.810;9.120;2022-08-25T03:45:31;8.37;;;6.10;;
209;SDS011;90;48.810;9.120;2022-08-25T03:47:58;6.23;;;5.93;;
209;SDS011;90;48.810;9.120;2022-08-25T03:50:26;6.40;;;6.00;;
209;SDS011;90;48.810;9.120;2022-08-25T03:52:54;5.70;;;5.40;;
209;SDS011;90;48.810;9.120;2022-08-25T03:55:22;6.57;;;5.80;;
209;SDS011;90;48.810;9.120;2022-08-25T03:57:51;6.33;;;5.80;;
209;SDS011;90;48.810;9.120;2022-08-25T04:00:19;7.30;;;6.13;;
209;SDS011;90;48.810;9.120;2022-08-25T04:02:47;6.97;;;6.17;;
209;SDS011;90;48.810;9.120;2022-08-25T04:05:14;8.83;;;6.10;;
209;SDS011;90;48.810;9.120;2022-08-25T04:07:43;9.13;;;6.30;;
209;SDS011;90;48.810;9.120;2022-08-25T04:10:10;7.23;;;6.60;;
209;SDS011;90;48.810;9.120;2022-08-25T04:12:37;6.17;;;5.87;;
209;SDS011;90;48.810;9.120;2022-08-25T04:15:06;8.20;;;6.77;;
209;SDS011;90;48.810;9.120;2022-08-25T04:17:35;7.80;;;6.73;;
209;SDS011;90;48.810;9.120;2022-08-25T04:20:05;6.30;;;5.93;;
209;SDS011;90;48.810;9.120;2022-08-25T04:22:33;7.13;;;6.73;;
209;SDS011;90;48.810;9.120;2022-08-25T04:25:02;9.97;;;6.27;;
209;SDS011;90;48.810;9.120;2022-08-25T04:27:30;9.30;;;6.30;;
209;SDS011;90;48.810;9.120;2022-08-25T04:29:57;6.03;;;5.73;;
209;SDS011;90;48.810;9.120;2022-08-25T04:32:25;7.13;;;6.43;;
209;SDS011;90;48.810;9.120;2022-08-25T04:34:52;8.60;;;5.87;;
209;SDS011;90;48.810;9.120;2022-08-25T04:37:19;9.50;;;6.60;;
209;SDS011;90;48.810;9.120;2022-08-25T04:39:46;9.03;;;6.20;;
209;SDS011;90;48.810;9.120;2022-08-25T04:42:15;9.53;;;6.67;;
209;SDS011;90;48.810;9.120;2022-08-25T04:44:42;8.73;;;6.27;;
209;SDS011;90;48.810;9.120;2022-08-25T04:47:09;7.03;;;6.40;;
209;SDS011;90;48.810;9.120;2022-08-25T04:49:36;8.77;;;6.60;;
209;SDS011;90;48.810;9.120;2022-08-25T04:52:03;7.30;;;6.90;;
209;SDS011;90;48.810;9.120;2022-08-25T04:54:30;6.33;;;6.00;;
209;SDS011;90;48.810;9.120;2022-08-25T04:56:57;6.90;;;6.33;;
209;SDS011;90;48.810;9.120;2022-08-25T04:59:26;6.50;;;6.20;;
209;SDS011;90;48.810;9.120;2022-08-25T05:01:53;10.47;;;6.30;;
209;SDS011;90;48.810;9.120;2022-08-25T05:04:21;8.43;;;6.90;;
209;SDS011;90;48.810;9.120;2022-08-25T05:06:48;9.67;;;6.73;;
209;SDS011;90;48.810;9.120;2022-08-25T05:09:15;7.70;;;6.90;;
209;SDS011;90;48.810;9.120;2022-08-25T05:11:42;9.03;;;6.37;;
209;SDS011;90;48.810;9.120;2022-08-25T05:14:09;7.23;;;6.00;;
209;SDS011;90;48.810;9.120;2022-08-25T05:16:40;11.60;;;6.70;;
209;SDS011;90;48.810;9.120;2022-08-25T05:19:07;8.77;;;7.33;;
209;SDS011;90;48.810;9.120;2022-08-25T05:21:34;10.43;;;7.10;;
209;SDS011;90;48.810;9.120;2022-08-25T05:24:02;8.90;;;7.00;;
209;SDS011;90;48.810;9.120;2022-08-25T05:26:30;9.67;;;6.83;;
209;SDS011;90;48.810;9.120;2022-08-25T05:28:59;9.90;;;6.70;;
209;SDS011;90;48.810;9.120;2022-08-25T05:31:28;9.23;;;6.85;;
209;SDS011;90;48.810;9.120;2022-08-25T05:33:58;8.37;;;7.27;;
209;SDS011;90;48.810;9.120;2022-08-25T05:36:26;8.63;;;6.83;;
209;SDS011;90;48.810;9.120;2022-08-25T05:38:53;8.50;;;7.30;;
209;SDS011;90;48.810;9.120;2022-08-25T05:41:23;8.63;;;7.70;;
209;SDS011;90;48.810;9.120;2022-08-25T05:43:52;8.40;;;7.37;;
209;SDS011;90;48.810;9.120;2022-08-25T05:46:19;9.60;;;7.07;;
209;SDS011;90;48.810;9.120;2022-08-25T05:48:48;12.37;;;6.90;;
209;SDS011;90;48.810;9.120;2022-08-25T05:51:16;10.83;;;7.70;;
209;SDS011;90;48.810;9.120;2022-08-25T05:53:46;8.77;;;7.53;;
209;SDS011;90;48.810;9.120;2022-08-25T05:56:14;12.47;;;6.80;;
209;SDS011;90;48.810;9.120;2022-08-25T05:58:41;11.33;;;6.67;;
209;SDS011;90;48.810;9.120;2022-08-25T06:01:16;11.87;;;7.97;;
209;SDS011;90;48.810;9.120;2022-08-25T06:04:03;9.43;;;7.50;;
209;SDS011;90;48.810;9.120;2022-08-25T06:06:31;11.03;;;7.80;;
209;SDS011;90;48.810;9.120;2022-08-25T06:09:00;10.57;;;7.80;;
209;SDS011;90;48.810;9.120;2022-08-25T06:11:29;12.67;;;8.00;;
209;SDS011;90;48.810;9.120;2022-08-25T06:13:56;10.73;;;8.00;;
209;SDS011;90;48.810;9.120;2022-08-25T06:16:23;10.63;;;8.03;;
209;SDS011;90;48.810;9.120;2022-08-25T06:18:51;10.63;;;8.33;;
209;SDS011;90;48.810;9.120;2022-08-25T06:21:19;14.13;;;8.87;;
209;SDS011;90;48.810;9.120;2022-08-25T06:23:47;13.83;;;8.40;;
209;SDS011;90;48.810;9.120;2022-08-25T06:26:14;14.53;;;8.63;;
209;SDS011;90;48.810;9.120;2022-08-25T06:28:42;12.07;;;8.43;;
209;SDS011;90;48.810;9.120;2022-08-25T06:31:09;11.43;;;8.02;;
209;SDS011;90;48.810;9.120;2022-08-25T06:33:36;10.10;;;7.40;;
209;SDS011;90;48.810;9.120;2022-08-25T06:36:03;11.07;;;8.83;;
209;SDS011;90;48.810;9.120;2022-08-25T06:38:31;10.80;;;8.30;;
209;SDS011;90;48.810;9.120;2022-08-25T06:41:01;11.67;;;8.87;;
209;SDS011;90;48.810;9.120;2022-08-25T06:43:28;10.50;;;8.67;;
209;SDS011;90;48.810;9.120;2022-08-25T06:45:57;13.60;;;9.23;;
209;SDS011;90;48.810;9.120;2022-08-25T06:48:24;10.10;;;9.13;;
209;SDS011;90;48.810;9.120;2022-08-25T06:50:51;14.83;;;9.07;;
209;SDS011;90;48.810;9.120;2022-08-25T06:53:18;10.20;;;7.60;;
209;SDS011;90;48.810;9.120;2022-08-25T06:55:54;11.53;;;8.97;;
209;SDS011;90;48.810;9.120;2022-08-25T06:58:23;14.33;;;8.67;;
209;SDS011;90;48.810;9.120;2022-08-25T07:00:51;11.83;;;9.43;;
209;SDS011;90;48.810;9.120;2022-08-25T07:03:18;11.83;;;8.87;;
209;SDS011;90;48.810;9.120;2022-08-25T07:05:49;10.90;;;9.60;;
209;SDS011;90;48.810;9.120;2022-08-25T07:08:20;10.03;;;8.73;;
209;SDS011;90;48.810;9.120;2022-08-25T07:10:48;9.80;;;8.27;;
209;SDS011;90;48.810;9.120;2022-08-25T07:13:15;13.60;;;9.20;;
209;SDS011;90;48.810;9.120;2022-08-25T07:15:43;10.88;;;9.38;;
209;SDS011;90;48.810;9.120;2022-08-25T07:18:10;11.40;;;8.67;;
209;SDS011;90;48.810;9.120;2022-08-25T07:20:38;13.37;;;9.53;;
209;SDS011;90;48.810;9.120;2022-08-25T07:23:06;13.97;;;9.70;;
209;SDS011;90;48.810;9.120;2022-08-25T07:25:33;11.83;;;9.93;;
209;SDS011;90;48.810;9.120;2022-08-25T07:28:01;15.53;;;9.30;;
209;SDS011;90;48.810;9.120;2022-08-25T07:30:29;11.00;;;8.70;;
209;SDS011;90;48.810;9.120;2022-08-25T07:32:58;11.50;;;9.27;;
209;SDS011;90;48.810;9.120;2022-08-25T07:35:25;9.70;;;8.87;;
209;SDS011;90;48.810;9.120;2022-08-25T07:37:52;13.20;;;9.50;;
209;SDS011;90;48.810;9.120;2022-08-25T07:40:21;10.27;;;9.20;;
209;SDS011;90;48.810;9.120;2022-08-25T07:42:53;10.77;;;8.90;;
209;SDS011;90;48.810;9.120;2022-08-25T07:45:22;10.70;;;8.33;;
209;SDS011;90;48.810;9.120;2022-08-25T07:47:54;10.43;;;8.53;;
209;SDS011;90;48.810;9.120;2022-08-25T07:50:23;10.00;;;9.00;;
209;SDS011;90;48.810;9.120;2022-08-25T07:52:50;10.50;;;8.80;;
209;SDS011;90;48.810;9.120;2022-08-25T07:55:18;13.83;;;9.17;;
209;SDS011;90;48.810;9.120;2022-08-25T07:57:45;12.17;;;8.53;;
209;SDS011;90;48.810;9.120;2022-08-25T08:00:13;13.07;;;9.53;;
209;SDS011;90;48.810;9.120;2022-08-25T08:02:42;11.17;;;8.60;;
209;SDS011;90;48.810;9.120;2022-08-25T08:05:10;13.33;;;9.27;;
209;SDS011;90;48.810;9.120;2022-08-25T08:07:40;11.87;;;9.57;;
209;SDS011;90;48.810;9.120;2022-08-25T08:10:07;10.60;;;8.97;;
209;SDS011;90;48.810;9.120;2022-08-25T08:12:36;12.10;;;9.00;;
209;SDS011;90;48.810;9.120;2022-08-25T08:15:04;12.68;;;9.75;;
209;SDS011;90;48.810;9.120;2022-08-25T08:17:31;11.90;;;10.30;;
209;SDS011;90;48.810;9.120;2022-08-25T08:19:58;12.90;;;8.53;;
209;SDS011;90;48.810;9.120;2022-08-25T08:22:26;14.10;;;10.27;;
209;SDS011;90;48.810;9.120;2022-08-25T08:24:54;11.97;;;9.70;;
209;SDS011;90;48.810;9.120;2022-08-25T08:27:22;11.60;;;9.87;;
209;SDS011;90;48.810;9.120;2022-08-25T08:29:49;14.80;;;9.27;;
209;SDS011;90;48.810;9.120;2022-08-25T08:32:17;13.47;;;9.87;;
209;SDS011;90;48.810;9.120;2022-08-25T08:34:45;11.30;;;9.00;;
209;SDS011;90;48.810;9.120;2022-08-25T08:37:13;12.43;;;9.03;;
209;SDS011;90;48.810;9.120;2022-08-25T08:39:41;20.17;;;8.70;;
209;SDS011;90;48.810;9.120;2022-08-25T08:42:18;14.53;;;9.30;;
209;SDS011;90;48.810;9.120;2022-08-25T08:45:01;9.57;;;8.83;;
209;SDS011;90;48.810;9.120;2022-08-25T08:47:37;12.57;;;9.93;;
209;SDS011;90;48.810;9.120;2022-08-25T08:50:27;11.70;;;8.10;;
209;SDS011;90;48.810;9.120;2022-08-25T08:52:59;11.90;;;9.40;;
209;SDS011;90;48.810;9.120;2022-08-25T08:55:31;10.33;;;8.80;;
209;SDS011;90;48.810;9.120;2022-08-25T08:58:03;13.17;;;10.10;;
209;SDS011;90;48.810;9.120;2022-08-25T09:00:32;12.17;;;9.80;;
209;SDS011;90;48.810;9.120;2022-08-25T09:03:05;14.20;;;10.10;;
209;SDS011;90;48.810;9.120;2022-08-25T09:05:36;12.30;;;9.80;;
209;SDS011;90;48.810;9.120;2022-08-25T09:08:09;11.87;;;9.50;;
209;SDS011;90;48.810;9.120;2022-08-25T09:10:40;11.30;;;9.03;;
209;SDS011;90;48.810;9.120;2022-08-25T09:13:19;11.20;;;8.35;;
209;SDS011;90;48.810;9.120;2022-08-25T09:15:52;11.30;;;9.23;;
209;SDS011;90;48.810;9.120;2022-08-25T09:18:50;12.73;;;8.67;;
209;SDS011;90;48.810;9.120;2022-08-25T09:21:25;8.10;;;7.63;;
209;SDS011;90;48.810;9.120;2022-08-25T09:24:08;10.67;;;8.97;;
209;SDS011;90;48.810;9.120;2022-08-25T09:26:45;9.90;;;8.43;;
209;SDS011;90;48.810;9.120;2022-08-25T09:29:21;9.43;;;8.23;;
209;SDS011;90;48.810;9.120;2022-08-25T09:31:50;11.97;;;9.33;;
209;SDS011;90;48.810;9.120;2022-08-25T09:34:20;10.13;;;8.43;;
209;SDS011;90;48.810;9.120;2022-08-25T09:36:52;9.63;;;8.87;;
209;SDS011;90;48.810;9.120;2022-08-25T09:39:19;11.27;;;8.17;;
209;SDS011;90;48.810;9.120;2022-08-25T09:41:49;10.03;;;8.83;;
209;SDS011;90;48.810;9.120;2022-08-25T09:44:22;10.77;;;8.97;;
209;SDS011;90;48.810;9.120;2022-08-25T09:46:53;10.87;;;8.33;;
209;SDS011;90;48.810;9.120;2022-08-25T09:49:31;10.73;;;9.10;;
209;SDS011;90;48.810;9.120;2022-08-25T09:54:58;12.07;;;9.77;;
209;SDS011;90;48.810;9.120;2022-08-25T09:57:36;9.50;;;8.70;;
209;SDS011;90;48.810;9.120;2022-08-25T10:00:14;10.57;;;9.03;;
209;SDS011;90;48.810;9.120;2022-08-25T10:02:43;13.60;;;9.23;;
209;SDS011;90;48.810;9.120;2022-08-25T10:05:25;9.13;;;8.63;;
209;SDS011;90;48.810;9.120;2022-08-25T10:07:56;11.10;;;8.53;;
209;SDS011;90;48.810;9.120;2022-08-25T10:10:27;11.55;;;8.65;;
209;SDS011;90;48.810;9.120;2022-08-25T10:12:56;9.70;;;9.00;;
209;SDS011;90;48.810;9.120;2022-08-25T10:15:27;12.13;;;8.87;;
209;SDS011;90;48.810;9.120;2022-08-25T10:18:15;13.23;;;9.70;;
209;SDS011;90;48.810;9.120;2022-08-25T10:23:45;13.83;;;8.50;;
209;SDS011;90;48.810;9.120;2022-08-25T10:26:19;10.37;;;9.23;;
209;SDS011;90;48.810;9.120;2022-08-25T10:29:02;11.43;;;9.70;;
209;SDS011;90;48.810;9.120;2022-08-25T10:31:39;11.73;;;8.73;;
209;SDS011;90;48.810;9.120;2022-08-25T10:34:29;9.80;;;9.30;;
209;SDS011;90;48.810;9.120;2022-08-25T10:37:08;11.73;;;9.50;;
209;SDS011;90;48.810;9.120;2022-08-25T10:39:44;10.33;;;8.90;;
209;SDS011;90;48.810;9.120;2022-08-25T10:42:27;9.80;;;9.20;;
209;SDS011;90;48.810;9.120;2022-08-25T10:45:07;9.93;;;9.43;;
209;SDS011;90;48.810;9.120;2022-08-25T10:50:52;10.10;;;8.97;;
209;SDS011;90;48.810;9.120;2022-08-25T10:53:26;10.40;;;9.53;;
209;SDS011;90;48.810;9.120;2022-08-25T10:56:04;10.00;;;9.10;;
209;SDS011;90;48.810;9.120;2022-08-25T11:01:32;10.43;;;8.80;;
209;SDS011;90;48.810;9.120;2022-08-25T11:04:11;9.90;;;8.00;;
209;SDS011;90;48.810;9.120;2022-08-25T11:06:41;11.73;;;8.80;;
209;SDS011;90;48.810;9.120;2022-08-25T11:09:15;10.27;;;8.40;;
209;SDS011;90;48.810;9.120;2022-08-25T11:11:48;8.50;;;7.73;;
209;SDS011;90;48.810;9.120;2022-08-25T11:14:22;10.77;;;8.30;;
209;SDS011;90;48.810;9.120;2022-08-25T11:16:56;8.30;;;7.57;;
209;SDS011;90;48.810;9.120;2022-08-25T11:19:31;11.40;;;9.00;;
209;SDS011;90;48.810;9.120;2022-08-25T11:22:03;14.30;;;8.10;;
209;SDS011;90;48.810;9.120;2022-08-25T11:24:43;10.13;;;8.27;;
209;SDS011;90;48.810;9.120;2022-08-25T11:27:20;12.50;;;9.30;;
209;SDS011;90;48.810;9.120;2022-08-25T11:29:53;9.10;;;8.50;;
209;SDS011;90;48.810;9.120;2022-08-25T11:32:32;9.00;;;8.17;;
209;SDS011;90;48.810;9.120;2022-08-25T11:35:05;8.67;;;8.20;;
209;SDS011;90;48.810;9.120;2022-08-25T11:37:37;9.60;;;9.10;;
209;SDS011;90;48.810;9.120;2022-08-25T11:40:18;8.07;;;7.60;;
209;SDS011;90;48.810;9.120;2022-08-25T11:43:00;9.83;;;9.33;;
209;SDS011;90;48.810;9.120;2022-08-25T11:45:48;9.83;;;8.63;;
209;SDS011;90;48.810;9.120;2022-08-25T11:48:27;8.57;;;8.07;;
209;SDS011;90;48.810;9.120;2022-08-25T11:51:06;9.50;;;9.03;;
209;SDS011;90;48.810;9.120;2022-08-25T11:53:34;9.40;;;8.90;;
209;SDS011;90;48.810;9.120;2022-08-25T11:56:04;8.17;;;7.77;;
209;SDS011;90;48.810;9.120;2022-08-25T11:58:38;9.40;;;8.67;;
209;SDS011;90;48.810;9.120;2022-08-25T12:01:11;9.10;;;8.60;;
209;SDS011;90;48.810;9.120;2022-08-25T12:04:30;9.83;;;8.93;;
209;SDS011;90;48.810;9.120;2022-08-25T12:07:21;10.00;;;7.13;;
209;SDS011;90;48.810;9.120;2022-08-25T12:10:09;9.30;;;8.80;;
209;SDS011;90;48.810;9.120;2022-08-25T12:15:24;12.77;;;8.37;;
209;SDS011;90;48.810;9.120;2022-08-25T12:18:10;9.77;;;8.60;;
209;SDS011;90;48.810;9.120;2022-08-25T12:23:40;13.63;;;8.30;;
209;SDS011;90;48.810;9.120;2022-08-25T12:26:17;8.40;;;7.30;;
209;SDS011;90;48.810;9.120;2022-08-25T12:28:55;12.50;;;7.53;;
209;SDS011;90;48.810;9.120;2022-08-25T12:31:39;8.27;;;7.87;;
209;SDS011;90;48.810;9.120;2022-08-25T12:34:30;7.80;;;7.40;;
209;SDS011;90;48.810;9.120;2022-08-25T12:37:12;7.63;;;7.23;;
209;SDS011;90;48.810;9.120;2022-08-25T12:39:45;13.00;;;7.00;;
209;SDS011;90;48.810;9.120;2022-08-25T12:42:27;7.50;;;7.10;;
209;SDS011;90;48.810;9.120;2022-08-25T12:45:13;8.17;;;7.77;;
209;SDS011;90;48.810;9.120;2022-08-25T12:51:21;7.50;;;7.10;;
209;SDS011;90;48.810;9.120;2022-08-25T12:54:11;7.27;;;6.80;;
209;SDS011;90;48.810;9.120;2022-08-25T12:56:51;7.63;;;7.23;;
209;SDS011;90;48.810;9.120;2022-08-25T12:59:32;7.93;;;7.53;;
209;SDS011;90;48.810;9.120;2022-08-25T13:02:16;8.53;;;7.70;;
209;SDS011;90;48.810;9.120;2022-08-25T13:05:33;8.10;;;7.70;;
209;SDS011;90;48.810;9.120;2022-08-25T13:08:40;7.00;;;6.60;;
209;SDS011;90;48.810;9.120;2022-08-25T13:11:29;7.23;;;6.83;;
209;SDS011;90;48.810;9.120;2022-08-25T13:14:11;7.30;;;6.90;;
209;SDS011;90;48.810;9.120;2022-08-25T13:16:50;7.63;;;7.27;;
209;SDS011;90;48.810;9.120;2022-08-25T13:19:19;7.70;;;7.30;;
209;SDS011;90;48.810;9.120;2022-08-25T13:21:48;8.60;;;7.60;;
209;SDS011;90;48.810;9.120;2022-08-25T13:24:20;7.53;;;7.20;;
209;SDS011;90;48.810;9.120;2022-08-25T13:26:53;7.83;;;6.80;;
209;SDS011;90;48.810;9.120;2022-08-25T13:29:25;7.43;;;7.00;;
209;SDS011;90;48.810;9.120;2022-08-25T13:31:57;7.57;;;7.17;;
209;SDS011;90;48.810;9.120;2022-08-25T13:34:27;7.70;;;7.30;;
209;SDS011;90;48.810;9.120;2022-08-25T13:36:56;8.07;;;7.67;;
209;SDS011;90;48.810;9.120;2022-08-25T13:39:48;7.20;;;6.80;;
209;SDS011;90;48.810;9.120;2022-08-25T13:42:16;9.50;;;7.53;;
209;SDS011;90;48.810;9.120;2022-08-25T13:44:45;6.83;;;6.43;;
209;SDS011;90;48.810;9.120;2022-08-25T13:47:12;7.90;;;7.50;;
209;SDS011;90;48.810;9.120;2022-08-25T13:49:42;7.27;;;6.87;;
209;SDS011;90;48.810;9.120;2022-08-25T13:52:14;9.07;;;6.87;;
209;SDS011;90;48.810;9.120;2022-08-25T13:54:48;7.50;;;7.10;;
209;SDS011;90;48.810;9.120;2022-08-25T13:57:18;8.13;;;7.73;;
209;SDS011;90;48.810;9.120;2022-08-25T13:59:50;7.00;;;6.60;;
209;SDS011;90;48.810;9.120;2022-08-25T14:05:06;7.20;;;6.67;;
209;SDS011;90;48.810;9.120;2022-08-25T14:07:33;8.53;;;6.40;;
209;SDS011;90;48.810;9.120;2022-08-25T14:10:04;8.07;;;7.00;;
209;SDS011;90;48.810;9.120;2022-08-25T14:12:35;9.30;;;5.93;;
209;SDS011;90;48.810;9.120;2022-08-25T14:15:08;6.10;;;5.80;;
209;SDS011;90;48.810;9.120;2022-08-25T14:17:38;5.70;;;5.40;;
209;SDS011;90;48.810;9.120;2022-08-25T14:20:15;6.50;;;6.10;;
209;SDS011;90;48.810;9.120;2022-08-25T14:22:45;6.60;;;6.20;;
209;SDS011;90;48.810;9.120;2022-08-25T14:25:13;6.40;;;6.00;;
209;SDS011;90;48.810;9.120;2022-08-25T14:27:41;7.00;;;6.60;;
209;SDS011;90;48.810;9.120;2022-08-25T14:30:11;7.10;;;6.70;;
209;SDS011;90;48.810;9.120;2022-08-25T14:32:39;9.10;;;7.30;;
209;SDS011;90;48.810;9.120;2022-08-25T14:35:07;9.90;;;7.10;;
209;SDS011;90;48.810;9.120;2022-08-25T14:37:34;7.00;;;6.60;;
209;SDS011;90;48.810;9.120;2022-08-25T14:40:02;6.90;;;6.50;;
209;SDS011;90;48.810;9.120;2022-08-25T14:42:30;7.10;;;6.70;;
209;SDS011;90;48.810;9.120;2022-08-25T14:44:57;6.97;;;6.57;;
209;SDS011;90;48.810;9.120;2022-08-25T14:47:25;7.13;;;6.73;;
209;SDS011;90;48.810;9.120;2022-08-25T14:49:52;6.77;;;6.37;;
209;SDS011;90;48.810;9.120;2022-08-25T14:52:20;7.50;;;7.10;;
209;SDS011;90;48.810;9.120;2022-08-25T14:54:50;7.47;;;7.07;;
209;SDS011;90;48.810;9.120;2022-08-25T14:57:17;6.67;;;6.27;;
209;SDS011;90;48.810;9.120;2022-08-25T14:59:44;6.83;;;6.30;;
209;SDS011;90;48.810;9.120;2022-08-25T15:02:16;7.17;;;6.80;;
209;SDS011;90;48.810;9.120;2022-08-25T15:04:49;6.50;;;6.10;;
209;SDS011;90;48.810;9.120;2022-08-25T15:07:19;6.60;;;6.20;;
209;SDS011;90;48.810;9.120;2022-08-25T15:10:04;6.93;;;6.50;;
209;SDS011;90;48.810;9.120;2022-08-25T15:12:32;7.63;;;5.60;;
209;SDS011;90;48.810;9.120;2022-08-25T15:14:59;6.10;;;5.80;;
209;SDS011;90;48.810;9.120;2022-08-25T15:17:27;7.23;;;6.83;;
209;SDS011;90;48.810;9.120;2022-08-25T15:19:56;7.00;;;6.60;;
209;SDS011;90;48.810;9.120;2022-08-25T15:22:24;6.40;;;6.00;;
209;SDS011;90;48.810;9.120;2022-08-25T15:24:52;8.33;;;6.87;;
209;SDS011;90;48.810;9.120;2022-08-25T15:27:19;7.60;;;7.17;;
209;SDS011;90;48.810;9.120;2022-08-25T15:29:47;6.60;;;6.20;;
209;SDS011;90;48.810;9.120;2022-08-25T15:32:14;7.37;;;6.97;;
209;SDS011;90;48.810;9.120;2022-08-25T15:34:41;7.23;;;6.83;;
209;SDS011;90;48.810;9.120;2022-08-25T15:37:13;7.80;;;6.50;;
209;SDS011;90;48.810;9.120;2022-08-25T15:39:41;8.17;;;6.73;;
209;SDS011;90;48.810;9.120;2022-08-25T15:42:10;7.10;;;6.70;;
209;SDS011;90;48.810;9.120;2022-08-25T15:44:37;7.07;;;6.67;;
209;SDS011;90;48.810;9.120;2022-08-25T15:47:05;7.50;;;6.63;;
209;SDS011;90;48.810;9.120;2022-08-25T15:49:33;6.20;;;5.90;;
209;SDS011;90;48.810;9.120;2022-08-25T15:52:01;6.80;;;6.37;;
209;SDS011;90;48.810;9.120;2022-08-25T15:54:30;6.87;;;6.47;;
209;SDS011;90;48.810;9.120;2022-08-25T15:56:57;7.00;;;6.27;;
209;SDS011;90;48.810;9.120;2022-08-25T15:59:24;6.80;;;6.40;;
209;SDS011;90;48.810;9.120;2022-08-25T16:01:52;7.00;;;6.60;;
209;SDS011;90;48.810;9.120;2022-08-25T16:04:20;6.90;;;6.50;;
209;SDS011;90;48.810;9.120;2022-08-25T16:06:48;6.60;;;6.20;;
209;SDS011;90;48.810;9.120;2022-08-25T16:09:15;7.03;;;6.63;;
209;SDS011;90;48.810;9.120;2022-08-25T16:11:44;7.03;;;6.63;;
209;SDS011;90;48.810;9.120;2022-08-25T16:14:12;7.20;;;6.80;;
209;SDS011;90;48.810;9.120;2022-08-25T16:16:40;6.80;;;6.40;;
209;SDS011;90;48.810;9.120;2022-08-25T16:19:07;6.87;;;6.47;;
209;SDS011;90;48.810;9.120;2022-08-25T16:21:34;6.83;;;6.43;;
209;SDS011;90;48.810;9.120;2022-08-25T16:24:04;7.53;;;7.13;;
209;SDS011;90;48.810;9.120;2022-08-25T16:26:32;7.33;;;6.70;;
209;SDS011;90;48.810;9.120;2022-08-25T16:29:02;7.00;;;6.60;;
209;SDS011;90;48.810;9.120;2022-08-25T16:31:29;6.97;;;6.50;;
209;SDS011;90;48.810;9.120;2022-08-25T16:33:56;6.95;;;6.55;;
209;SDS011;90;48.810;9.120;2022-08-25T16:36:25;7.17;;;6.77;;
209;SDS011;90;48.810;9.120;2022-08-25T16:38:53;6.80;;;6.40;;
209;SDS011;90;48.810;9.120;2022-08-25T16:41:22;7.30;;;6.90;;
209;SDS011;90;48.810;9.120;2022-08-25T16:43:51;8.03;;;6.67;;
209;SDS011;90;48.810;9.120;2022-08-25T16:46:20;7.17;;;6.77;;